sensor_id;sensor_type;location;lat;lon;timestamp;P1;durP1;ratioP1;P2;durP2;ratioP2
49412;SDS011;35493;50.276;9.372;2022-12-31T00:00:06;2.40;;;1.27;;
49412;SDS011;35493;50.276;9.372;2022-12-31T00:02:35;2.60;;;1.35;;
49412;SDS011;35493;50.276;9.372;2022-12-31T00:05:02;3.13;;;1.10;;
49412;SDS011;35493;50.276;9.372;2022-12-31T00:07:31;3.03;;;1.50;;
49412;SDS011;35493;50.276;9.372;2022-12-31T00:10:00;2.55;;;1.10;;
49412;SDS011;35493;50.276;9.372;2022-12-31T00:12:28;2.92;;;1.15;;
49412;SDS011;35493;50.276;9.372;2022-12-31T00:14:54;1.80;;;0.80;;
49412;SDS011;35493;50.276;9.372;2022-12-31T00:17:22;2.33;;;0.93;;
49412;SDS011;35493;50.276;9.372;2022-12-31T00:19:50;1.35;;;0.80;;
49412;SDS011;35493;50.276;9.372;2022-12-31T00:22:17;1.52;;;0.70;;
49412;SDS011;35493;50.276;9.372;2022-12-31T00:24:44;1.13;;;0.60;;
49412;SDS011;35493;50.276;9.372;2022-12-31T00:27:11;1.75;;;0.70;;
49412;SDS011;35493;50.276;9.372;2022-12-31T00:29:38;1.85;;;0.60;;
49412;SDS011;35493;50.276;9.372;2022-12-31T00:32:04;3.25;;;1.33;;
49412;SDS011;35493;50.276;9.372;2022-12-31T00:34:31;4.18;;;1.90;;
49412;SDS011;35493;50.276;9.372;2022-12-31T00:36:59;4.43;;;1.80;;
49412;SDS011;35493;50.276;9.372;2022-12-31T00:39:26;3.95;;;1.70;;
49412;SDS011;35493;50.276;9.372;2022-12-31T00:41:53;2.65;;;1.15;;
49412;SDS011;35493;50.276;9.372;2022-12-31T00:44:20;3.40;;;1.25;;
49412;SDS011;35493;50.276;9.372;2022-12-31T00:46:46;3.05;;;1.10;;
49412;SDS011;35493;50.276;9.372;2022-12-31T00:49:13;1.52;;;0.70;;
49412;SDS011;35493;50.276;9.372;2022-12-31T00:51:40;0.93;;;0.60;;
49412;SDS011;35493;50.276;9.372;2022-12-31T00:54:09;2.33;;;0.70;;
49412;SDS011;35493;50.276;9.372;2022-12-31T00:56:35;2.63;;;0.75;;
49412;SDS011;35493;50.276;9.372;2022-12-31T00:59:02;2.17;;;0.68;;
49412;SDS011;35493;50.276;9.372;2022-12-31T01:01:30;2.08;;;0.77;;
49412;SDS011;35493;50.276;9.372;2022-12-31T01:03:59;2.22;;;0.60;;
49412;SDS011;35493;50.276;9.372;2022-12-31T01:06:28;0.80;;;0.50;;
49412;SDS011;35493;50.276;9.372;2022-12-31T01:08:54;2.08;;;0.55;;
49412;SDS011;35493;50.276;9.372;2022-12-31T01:11:23;1.25;;;0.50;;
49412;SDS011;35493;50.276;9.372;2022-12-31T01:13:53;1.55;;;0.70;;
49412;SDS011;35493;50.276;9.372;2022-12-31T01:16:23;1.63;;;0.50;;
49412;SDS011;35493;50.276;9.372;2022-12-31T01:18:51;1.40;;;0.40;;
49412;SDS011;35493;50.276;9.372;2022-12-31T01:21:19;1.13;;;0.50;;
49412;SDS011;35493;50.276;9.372;2022-12-31T01:23:46;1.38;;;0.70;;
49412;SDS011;35493;50.276;9.372;2022-12-31T01:26:14;1.33;;;0.52;;
49412;SDS011;35493;50.276;9.372;2022-12-31T01:28:43;1.05;;;0.50;;
49412;SDS011;35493;50.276;9.372;2022-12-31T01:31:11;1.60;;;0.77;;
49412;SDS011;35493;50.276;9.372;2022-12-31T01:33:40;2.25;;;0.70;;
49412;SDS011;35493;50.276;9.372;2022-12-31T01:36:08;2.42;;;0.75;;
49412;SDS011;35493;50.276;9.372;2022-12-31T01:38:37;1.73;;;0.50;;
49412;SDS011;35493;50.276;9.372;2022-12-31T01:41:05;0.82;;;0.40;;
49412;SDS011;35493;50.276;9.372;2022-12-31T01:43:45;1.25;;;0.45;;
49412;SDS011;35493;50.276;9.372;2022-12-31T01:46:16;2.30;;;0.70;;
49412;SDS011;35493;50.276;9.372;2022-12-31T01:48:51;0.60;;;0.40;;
49412;SDS011;35493;50.276;9.372;2022-12-31T01:51:21;0.90;;;0.40;;
49412;SDS011;35493;50.276;9.372;2022-12-31T01:53:48;2.13;;;0.85;;
49412;SDS011;35493;50.276;9.372;2022-12-31T01:56:17;1.38;;;0.47;;
49412;SDS011;35493;50.276;9.372;2022-12-31T01:58:48;1.05;;;0.47;;
49412;SDS011;35493;50.276;9.372;2022-12-31T02:01:19;1.48;;;0.60;;
49412;SDS011;35493;50.276;9.372;2022-12-31T02:03:49;1.25;;;0.55;;
49412;SDS011;35493;50.276;9.372;2022-12-31T02:06:17;2.03;;;0.68;;
49412;SDS011;35493;50.276;9.372;2022-12-31T02:08:46;1.02;;;0.55;;
49412;SDS011;35493;50.276;9.372;2022-12-31T02:11:21;1.08;;;0.50;;
49412;SDS011;35493;50.276;9.372;2022-12-31T02:13:52;1.33;;;0.50;;
49412;SDS011;35493;50.276;9.372;2022-12-31T02:18:52;0.80;;;0.40;;
49412;SDS011;35493;50.276;9.372;2022-12-31T02:21:29;1.23;;;0.50;;
49412;SDS011;35493;50.276;9.372;2022-12-31T02:27:32;0.90;;;0.60;;
49412;SDS011;35493;50.276;9.372;2022-12-31T02:30:13;1.67;;;0.60;;
49412;SDS011;35493;50.276;9.372;2022-12-31T02:33:01;1.70;;;0.55;;
49412;SDS011;35493;50.276;9.372;2022-12-31T02:35:36;1.73;;;0.55;;
49412;SDS011;35493;50.276;9.372;2022-12-31T02:38:13;2.75;;;0.73;;
49412;SDS011;35493;50.276;9.372;2022-12-31T02:40:44;1.67;;;0.55;;
49412;SDS011;35493;50.276;9.372;2022-12-31T02:43:12;1.38;;;0.70;;
49412;SDS011;35493;50.276;9.372;2022-12-31T02:45:40;2.05;;;0.60;;
49412;SDS011;35493;50.276;9.372;2022-12-31T02:48:20;1.95;;;0.65;;
49412;SDS011;35493;50.276;9.372;2022-12-31T02:51:00;1.55;;;0.73;;
49412;SDS011;35493;50.276;9.372;2022-12-31T02:56:35;2.25;;;0.80;;
49412;SDS011;35493;50.276;9.372;2022-12-31T02:59:07;1.73;;;0.70;;
49412;SDS011;35493;50.276;9.372;2022-12-31T03:01:59;1.65;;;0.50;;
49412;SDS011;35493;50.276;9.372;2022-12-31T03:04:44;1.42;;;0.63;;
49412;SDS011;35493;50.276;9.372;2022-12-31T03:07:17;1.42;;;0.60;;
49412;SDS011;35493;50.276;9.372;2022-12-31T03:09:46;2.08;;;0.68;;
49412;SDS011;35493;50.276;9.372;2022-12-31T03:12:13;1.08;;;0.60;;
49412;SDS011;35493;50.276;9.372;2022-12-31T03:14:59;1.30;;;0.60;;
49412;SDS011;35493;50.276;9.372;2022-12-31T03:17:32;1.55;;;0.73;;
49412;SDS011;35493;50.276;9.372;2022-12-31T03:20:00;3.22;;;0.85;;
49412;SDS011;35493;50.276;9.372;2022-12-31T03:22:46;1.50;;;0.60;;
49412;SDS011;35493;50.276;9.372;2022-12-31T03:25:14;1.67;;;0.60;;
49412;SDS011;35493;50.276;9.372;2022-12-31T03:28:00;2.30;;;0.70;;
49412;SDS011;35493;50.276;9.372;2022-12-31T03:30:31;1.98;;;0.75;;
49412;SDS011;35493;50.276;9.372;2022-12-31T03:33:00;1.95;;;0.63;;
49412;SDS011;35493;50.276;9.372;2022-12-31T03:35:32;1.45;;;0.70;;
49412;SDS011;35493;50.276;9.372;2022-12-31T03:40:32;1.60;;;0.60;;
49412;SDS011;35493;50.276;9.372;2022-12-31T03:43:02;2.20;;;0.63;;
49412;SDS011;35493;50.276;9.372;2022-12-31T03:45:30;1.73;;;0.60;;
49412;SDS011;35493;50.276;9.372;2022-12-31T03:47:56;2.10;;;0.65;;
49412;SDS011;35493;50.276;9.372;2022-12-31T03:50:25;2.78;;;0.80;;
49412;SDS011;35493;50.276;9.372;2022-12-31T03:52:51;1.55;;;0.50;;
49412;SDS011;35493;50.276;9.372;2022-12-31T03:55:19;1.13;;;0.63;;
49412;SDS011;35493;50.276;9.372;2022-12-31T03:57:46;1.35;;;0.63;;
49412;SDS011;35493;50.276;9.372;2022-12-31T04:00:14;1.30;;;0.60;;
49412;SDS011;35493;50.276;9.372;2022-12-31T04:02:43;1.85;;;0.73;;
49412;SDS011;35493;50.276;9.372;2022-12-31T04:05:10;4.78;;;0.70;;
49412;SDS011;35493;50.276;9.372;2022-12-31T04:07:38;1.73;;;0.70;;
49412;SDS011;35493;50.276;9.372;2022-12-31T04:10:06;1.63;;;0.70;;
49412;SDS011;35493;50.276;9.372;2022-12-31T04:12:36;1.52;;;0.60;;
49412;SDS011;35493;50.276;9.372;2022-12-31T04:15:04;2.05;;;0.80;;
49412;SDS011;35493;50.276;9.372;2022-12-31T04:17:32;2.38;;;0.70;;
49412;SDS011;35493;50.276;9.372;2022-12-31T04:19:58;2.30;;;0.65;;
49412;SDS011;35493;50.276;9.372;2022-12-31T04:22:28;2.63;;;0.80;;
49412;SDS011;35493;50.276;9.372;2022-12-31T04:24:57;2.33;;;0.60;;
49412;SDS011;35493;50.276;9.372;2022-12-31T04:27:23;3.28;;;0.95;;
49412;SDS011;35493;50.276;9.372;2022-12-31T04:29:50;2.20;;;0.80;;
49412;SDS011;35493;50.276;9.372;2022-12-31T04:32:17;1.85;;;0.80;;
49412;SDS011;35493;50.276;9.372;2022-12-31T04:34:44;1.95;;;0.65;;
49412;SDS011;35493;50.276;9.372;2022-12-31T04:37:11;3.58;;;0.80;;
49412;SDS011;35493;50.276;9.372;2022-12-31T04:39:38;1.83;;;0.75;;
49412;SDS011;35493;50.276;9.372;2022-12-31T04:42:06;2.15;;;0.80;;
49412;SDS011;35493;50.276;9.372;2022-12-31T04:44:32;3.13;;;0.70;;
49412;SDS011;35493;50.276;9.372;2022-12-31T04:46:59;1.77;;;0.60;;
49412;SDS011;35493;50.276;9.372;2022-12-31T04:49:26;3.80;;;0.80;;
49412;SDS011;35493;50.276;9.372;2022-12-31T04:51:53;3.03;;;0.80;;
49412;SDS011;35493;50.276;9.372;2022-12-31T04:54:20;1.27;;;0.70;;
49412;SDS011;35493;50.276;9.372;2022-12-31T04:56:47;2.10;;;0.70;;
49412;SDS011;35493;50.276;9.372;2022-12-31T04:59:15;1.38;;;0.60;;
49412;SDS011;35493;50.276;9.372;2022-12-31T05:01:42;2.05;;;0.70;;
49412;SDS011;35493;50.276;9.372;2022-12-31T05:04:09;1.48;;;0.70;;
49412;SDS011;35493;50.276;9.372;2022-12-31T05:06:36;2.53;;;0.80;;
49412;SDS011;35493;50.276;9.372;2022-12-31T05:09:03;2.17;;;0.85;;
49412;SDS011;35493;50.276;9.372;2022-12-31T05:11:30;2.20;;;0.85;;
49412;SDS011;35493;50.276;9.372;2022-12-31T05:13:57;2.33;;;0.80;;
49412;SDS011;35493;50.276;9.372;2022-12-31T05:16:25;4.00;;;1.00;;
49412;SDS011;35493;50.276;9.372;2022-12-31T05:18:53;2.50;;;0.90;;
49412;SDS011;35493;50.276;9.372;2022-12-31T05:21:20;3.25;;;0.75;;
49412;SDS011;35493;50.276;9.372;2022-12-31T05:23:47;1.92;;;0.70;;
49412;SDS011;35493;50.276;9.372;2022-12-31T05:26:14;3.28;;;0.82;;
49412;SDS011;35493;50.276;9.372;2022-12-31T05:28:42;4.20;;;1.10;;
49412;SDS011;35493;50.276;9.372;2022-12-31T05:31:09;2.55;;;0.90;;
49412;SDS011;35493;50.276;9.372;2022-12-31T05:33:38;1.85;;;0.90;;
49412;SDS011;35493;50.276;9.372;2022-12-31T05:36:05;2.80;;;1.17;;
49412;SDS011;35493;50.276;9.372;2022-12-31T05:38:32;2.25;;;1.10;;
49412;SDS011;35493;50.276;9.372;2022-12-31T05:41:00;2.80;;;0.85;;
49412;SDS011;35493;50.276;9.372;2022-12-31T05:43:28;3.05;;;0.90;;
49412;SDS011;35493;50.276;9.372;2022-12-31T05:45:55;1.75;;;1.02;;
49412;SDS011;35493;50.276;9.372;2022-12-31T05:48:22;2.65;;;0.80;;
49412;SDS011;35493;50.276;9.372;2022-12-31T05:50:50;1.65;;;0.70;;
49412;SDS011;35493;50.276;9.372;2022-12-31T05:53:17;1.92;;;0.70;;
49412;SDS011;35493;50.276;9.372;2022-12-31T05:55:44;2.30;;;0.70;;
49412;SDS011;35493;50.276;9.372;2022-12-31T05:58:12;2.47;;;0.90;;
49412;SDS011;35493;50.276;9.372;2022-12-31T06:00:40;1.48;;;0.65;;
49412;SDS011;35493;50.276;9.372;2022-12-31T06:03:07;1.80;;;1.05;;
49412;SDS011;35493;50.276;9.372;2022-12-31T06:05:34;3.33;;;0.85;;
49412;SDS011;35493;50.276;9.372;2022-12-31T06:08:05;2.20;;;0.70;;
49412;SDS011;35493;50.276;9.372;2022-12-31T06:10:32;2.33;;;0.80;;
49412;SDS011;35493;50.276;9.372;2022-12-31T06:12:59;1.63;;;0.73;;
49412;SDS011;35493;50.276;9.372;2022-12-31T06:15:26;1.13;;;0.57;;
49412;SDS011;35493;50.276;9.372;2022-12-31T06:17:53;2.72;;;0.70;;
49412;SDS011;35493;50.276;9.372;2022-12-31T06:20:20;1.75;;;0.70;;
49412;SDS011;35493;50.276;9.372;2022-12-31T06:22:47;3.45;;;1.05;;
49412;SDS011;35493;50.276;9.372;2022-12-31T06:25:15;1.88;;;1.00;;
49412;SDS011;35493;50.276;9.372;2022-12-31T06:27:42;2.33;;;0.50;;
49412;SDS011;35493;50.276;9.372;2022-12-31T06:30:09;1.48;;;0.73;;
49412;SDS011;35493;50.276;9.372;2022-12-31T06:32:36;1.02;;;0.57;;
49412;SDS011;35493;50.276;9.372;2022-12-31T06:35:05;2.45;;;0.80;;
49412;SDS011;35493;50.276;9.372;2022-12-31T06:37:32;2.40;;;0.65;;
49412;SDS011;35493;50.276;9.372;2022-12-31T06:39:59;1.40;;;0.70;;
49412;SDS011;35493;50.276;9.372;2022-12-31T06:42:28;2.05;;;0.65;;
49412;SDS011;35493;50.276;9.372;2022-12-31T06:44:55;2.05;;;0.55;;
49412;SDS011;35493;50.276;9.372;2022-12-31T06:47:22;2.22;;;0.70;;
49412;SDS011;35493;50.276;9.372;2022-12-31T06:49:49;1.25;;;0.57;;
49412;SDS011;35493;50.276;9.372;2022-12-31T06:52:16;5.25;;;0.98;;
49412;SDS011;35493;50.276;9.372;2022-12-31T06:54:43;3.22;;;0.93;;
49412;SDS011;35493;50.276;9.372;2022-12-31T06:57:10;2.63;;;0.98;;
49412;SDS011;35493;50.276;9.372;2022-12-31T06:59:41;2.87;;;0.90;;
49412;SDS011;35493;50.276;9.372;2022-12-31T07:07:57;0.88;;;0.52;;
49412;SDS011;35493;50.276;9.372;2022-12-31T07:10:34;2.80;;;0.77;;
49412;SDS011;35493;50.276;9.372;2022-12-31T07:13:18;1.23;;;0.63;;
49412;SDS011;35493;50.276;9.372;2022-12-31T07:16:15;1.98;;;0.63;;
49412;SDS011;35493;50.276;9.372;2022-12-31T07:18:54;1.63;;;0.65;;
49412;SDS011;35493;50.276;9.372;2022-12-31T07:21:31;2.15;;;0.90;;
49412;SDS011;35493;50.276;9.372;2022-12-31T07:24:01;1.15;;;0.63;;
49412;SDS011;35493;50.276;9.372;2022-12-31T07:26:33;1.38;;;0.60;;
49412;SDS011;35493;50.276;9.372;2022-12-31T07:29:14;1.67;;;0.50;;
49412;SDS011;35493;50.276;9.372;2022-12-31T07:31:51;1.58;;;0.57;;
49412;SDS011;35493;50.276;9.372;2022-12-31T07:34:25;1.85;;;0.60;;
49412;SDS011;35493;50.276;9.372;2022-12-31T07:37:01;3.75;;;0.88;;
49412;SDS011;35493;50.276;9.372;2022-12-31T07:39:35;3.35;;;0.80;;
49412;SDS011;35493;50.276;9.372;2022-12-31T07:42:09;1.38;;;0.70;;
49412;SDS011;35493;50.276;9.372;2022-12-31T07:44:44;4.38;;;1.30;;
49412;SDS011;35493;50.276;9.372;2022-12-31T07:47:25;0.75;;;0.50;;
49412;SDS011;35493;50.276;9.372;2022-12-31T07:49:53;2.40;;;0.70;;
49412;SDS011;35493;50.276;9.372;2022-12-31T07:52:21;1.00;;;0.70;;
49412;SDS011;35493;50.276;9.372;2022-12-31T07:54:49;3.35;;;0.60;;
49412;SDS011;35493;50.276;9.372;2022-12-31T07:57:17;2.00;;;1.00;;
49412;SDS011;35493;50.276;9.372;2022-12-31T07:59:48;1.33;;;0.50;;
49412;SDS011;35493;50.276;9.372;2022-12-31T08:02:28;2.08;;;0.90;;
49412;SDS011;35493;50.276;9.372;2022-12-31T08:05:07;2.83;;;0.90;;
49412;SDS011;35493;50.276;9.372;2022-12-31T08:07:43;2.05;;;0.68;;
49412;SDS011;35493;50.276;9.372;2022-12-31T08:10:17;2.35;;;0.77;;
49412;SDS011;35493;50.276;9.372;2022-12-31T08:12:51;1.83;;;0.70;;
49412;SDS011;35493;50.276;9.372;2022-12-31T08:15:27;2.05;;;0.70;;
49412;SDS011;35493;50.276;9.372;2022-12-31T08:17:56;2.13;;;1.15;;
49412;SDS011;35493;50.276;9.372;2022-12-31T08:20:23;3.97;;;0.85;;
49412;SDS011;35493;50.276;9.372;2022-12-31T08:22:58;2.03;;;0.70;;
49412;SDS011;35493;50.276;9.372;2022-12-31T08:25:44;2.47;;;0.98;;
49412;SDS011;35493;50.276;9.372;2022-12-31T08:28:39;2.92;;;0.77;;
49412;SDS011;35493;50.276;9.372;2022-12-31T08:31:26;1.35;;;0.63;;
49412;SDS011;35493;50.276;9.372;2022-12-31T08:34:02;1.58;;;0.70;;
49412;SDS011;35493;50.276;9.372;2022-12-31T08:36:40;1.67;;;0.70;;
49412;SDS011;35493;50.276;9.372;2022-12-31T08:39:16;1.77;;;0.77;;
49412;SDS011;35493;50.276;9.372;2022-12-31T08:41:55;3.10;;;0.68;;
49412;SDS011;35493;50.276;9.372;2022-12-31T08:44:26;3.53;;;0.77;;
49412;SDS011;35493;50.276;9.372;2022-12-31T08:47:08;2.30;;;0.90;;
49412;SDS011;35493;50.276;9.372;2022-12-31T08:49:44;2.40;;;0.70;;
49412;SDS011;35493;50.276;9.372;2022-12-31T08:52:14;2.50;;;0.70;;
49412;SDS011;35493;50.276;9.372;2022-12-31T08:54:49;1.73;;;0.70;;
49412;SDS011;35493;50.276;9.372;2022-12-31T08:57:19;2.05;;;0.80;;
49412;SDS011;35493;50.276;9.372;2022-12-31T08:59:52;1.88;;;0.80;;
49412;SDS011;35493;50.276;9.372;2022-12-31T09:02:36;1.02;;;0.57;;
49412;SDS011;35493;50.276;9.372;2022-12-31T09:05:24;1.35;;;0.63;;
49412;SDS011;35493;50.276;9.372;2022-12-31T09:07:59;1.80;;;0.68;;
49412;SDS011;35493;50.276;9.372;2022-12-31T09:10:37;2.67;;;0.60;;
49412;SDS011;35493;50.276;9.372;2022-12-31T09:13:11;2.28;;;0.65;;
49412;SDS011;35493;50.276;9.372;2022-12-31T09:15:47;2.35;;;0.90;;
49412;SDS011;35493;50.276;9.372;2022-12-31T09:18:20;1.15;;;0.70;;
49412;SDS011;35493;50.276;9.372;2022-12-31T09:20:51;1.70;;;0.88;;
49412;SDS011;35493;50.276;9.372;2022-12-31T09:23:18;1.88;;;0.77;;
49412;SDS011;35493;50.276;9.372;2022-12-31T09:25:47;2.92;;;1.17;;
49412;SDS011;35493;50.276;9.372;2022-12-31T09:28:30;2.42;;;0.60;;
49412;SDS011;35493;50.276;9.372;2022-12-31T09:31:05;2.53;;;0.80;;
49412;SDS011;35493;50.276;9.372;2022-12-31T09:33:39;3.33;;;0.95;;
49412;SDS011;35493;50.276;9.372;2022-12-31T09:36:15;1.88;;;0.90;;
49412;SDS011;35493;50.276;9.372;2022-12-31T09:38:49;2.97;;;1.20;;
49412;SDS011;35493;50.276;9.372;2022-12-31T09:41:39;1.65;;;0.68;;
49412;SDS011;35493;50.276;9.372;2022-12-31T09:44:40;2.20;;;0.80;;
49412;SDS011;35493;50.276;9.372;2022-12-31T09:47:32;2.45;;;0.80;;
49412;SDS011;35493;50.276;9.372;2022-12-31T09:50:37;1.70;;;0.90;;
49412;SDS011;35493;50.276;9.372;2022-12-31T09:53:30;1.90;;;0.70;;
49412;SDS011;35493;50.276;9.372;2022-12-31T09:56:07;3.30;;;0.80;;
49412;SDS011;35493;50.276;9.372;2022-12-31T09:58:43;3.30;;;0.82;;
49412;SDS011;35493;50.276;9.372;2022-12-31T10:01:22;1.33;;;0.68;;
49412;SDS011;35493;50.276;9.372;2022-12-31T10:04:00;3.83;;;0.90;;
49412;SDS011;35493;50.276;9.372;2022-12-31T10:06:50;9.20;;;6.65;;
49412;SDS011;35493;50.276;9.372;2022-12-31T10:09:35;11.07;;;9.98;;
49412;SDS011;35493;50.276;9.372;2022-12-31T10:12:22;8.32;;;7.13;;
49412;SDS011;35493;50.276;9.372;2022-12-31T10:15:04;7.35;;;4.90;;
49412;SDS011;35493;50.276;9.372;2022-12-31T10:17:52;4.28;;;2.80;;
49412;SDS011;35493;50.276;9.372;2022-12-31T10:20:45;4.72;;;2.35;;
49412;SDS011;35493;50.276;9.372;2022-12-31T10:23:25;2.30;;;1.20;;
49412;SDS011;35493;50.276;9.372;2022-12-31T10:26:19;3.03;;;0.90;;
49412;SDS011;35493;50.276;9.372;2022-12-31T10:28:54;3.83;;;1.02;;
49412;SDS011;35493;50.276;9.372;2022-12-31T10:31:36;2.92;;;0.95;;
49412;SDS011;35493;50.276;9.372;2022-12-31T10:34:12;2.17;;;0.98;;
49412;SDS011;35493;50.276;9.372;2022-12-31T10:36:54;3.33;;;0.90;;
49412;SDS011;35493;50.276;9.372;2022-12-31T10:39:27;1.90;;;0.80;;
49412;SDS011;35493;50.276;9.372;2022-12-31T10:45:20;2.83;;;0.98;;
49412;SDS011;35493;50.276;9.372;2022-12-31T10:48:07;1.85;;;0.73;;
49412;SDS011;35493;50.276;9.372;2022-12-31T10:51:03;2.65;;;1.00;;
49412;SDS011;35493;50.276;9.372;2022-12-31T10:53:48;2.22;;;0.70;;
49412;SDS011;35493;50.276;9.372;2022-12-31T10:56:59;2.22;;;0.70;;
49412;SDS011;35493;50.276;9.372;2022-12-31T11:06:08;5.20;;;2.20;;
49412;SDS011;35493;50.276;9.372;2022-12-31T11:09:03;3.45;;;1.50;;
49412;SDS011;35493;50.276;9.372;2022-12-31T11:11:48;2.85;;;0.93;;
49412;SDS011;35493;50.276;9.372;2022-12-31T11:19:56;3.65;;;1.15;;
49412;SDS011;35493;50.276;9.372;2022-12-31T11:22:42;3.00;;;1.00;;
49412;SDS011;35493;50.276;9.372;2022-12-31T11:25:20;1.63;;;0.75;;
49412;SDS011;35493;50.276;9.372;2022-12-31T11:28:02;3.80;;;1.25;;
49412;SDS011;35493;50.276;9.372;2022-12-31T11:30:46;1.85;;;0.73;;
49412;SDS011;35493;50.276;9.372;2022-12-31T11:33:30;3.05;;;1.10;;
49412;SDS011;35493;50.276;9.372;2022-12-31T11:36:25;3.05;;;0.70;;
49412;SDS011;35493;50.276;9.372;2022-12-31T11:41:59;2.28;;;1.00;;
49412;SDS011;35493;50.276;9.372;2022-12-31T11:44:39;2.53;;;0.90;;
49412;SDS011;35493;50.276;9.372;2022-12-31T11:47:15;2.35;;;1.00;;
49412;SDS011;35493;50.276;9.372;2022-12-31T11:50:14;3.00;;;0.98;;
49412;SDS011;35493;50.276;9.372;2022-12-31T11:52:58;4.00;;;0.90;;
49412;SDS011;35493;50.276;9.372;2022-12-31T11:55:37;2.22;;;0.90;;
49412;SDS011;35493;50.276;9.372;2022-12-31T11:58:13;2.80;;;0.80;;
49412;SDS011;35493;50.276;9.372;2022-12-31T12:00:43;2.70;;;1.00;;
49412;SDS011;35493;50.276;9.372;2022-12-31T12:03:17;5.78;;;0.93;;
49412;SDS011;35493;50.276;9.372;2022-12-31T12:05:44;3.30;;;1.10;;
49412;SDS011;35493;50.276;9.372;2022-12-31T12:08:12;2.88;;;1.00;;
49412;SDS011;35493;50.276;9.372;2022-12-31T12:10:41;3.75;;;1.10;;
49412;SDS011;35493;50.276;9.372;2022-12-31T12:13:12;3.05;;;1.10;;
49412;SDS011;35493;50.276;9.372;2022-12-31T12:15:46;3.33;;;0.98;;
49412;SDS011;35493;50.276;9.372;2022-12-31T12:18:24;2.42;;;0.82;;
49412;SDS011;35493;50.276;9.372;2022-12-31T12:20:59;2.53;;;1.23;;
49412;SDS011;35493;50.276;9.372;2022-12-31T12:23:31;3.72;;;1.00;;
49412;SDS011;35493;50.276;9.372;2022-12-31T12:25:58;2.20;;;1.00;;
49412;SDS011;35493;50.276;9.372;2022-12-31T12:28:30;2.47;;;1.00;;
49412;SDS011;35493;50.276;9.372;2022-12-31T12:31:13;3.05;;;1.00;;
49412;SDS011;35493;50.276;9.372;2022-12-31T12:33:45;4.22;;;1.50;;
49412;SDS011;35493;50.276;9.372;2022-12-31T12:36:13;2.45;;;1.00;;
49412;SDS011;35493;50.276;9.372;2022-12-31T12:41:11;4.35;;;1.30;;
49412;SDS011;35493;50.276;9.372;2022-12-31T12:43:44;4.50;;;1.15;;
49412;SDS011;35493;50.276;9.372;2022-12-31T12:46:17;3.40;;;1.33;;
49412;SDS011;35493;50.276;9.372;2022-12-31T12:48:46;4.57;;;1.30;;
49412;SDS011;35493;50.276;9.372;2022-12-31T12:51:21;2.30;;;1.00;;
49412;SDS011;35493;50.276;9.372;2022-12-31T12:54:05;4.30;;;1.00;;
49412;SDS011;35493;50.276;9.372;2022-12-31T12:56:39;4.50;;;1.45;;
49412;SDS011;35493;50.276;9.372;2022-12-31T12:59:29;2.80;;;0.95;;
49412;SDS011;35493;50.276;9.372;2022-12-31T13:02:11;1.70;;;0.75;;
49412;SDS011;35493;50.276;9.372;2022-12-31T13:04:56;2.92;;;0.95;;
49412;SDS011;35493;50.276;9.372;2022-12-31T13:07:37;3.13;;;1.27;;
49412;SDS011;35493;50.276;9.372;2022-12-31T13:10:16;4.05;;;0.82;;
49412;SDS011;35493;50.276;9.372;2022-12-31T13:12:58;3.08;;;1.30;;
49412;SDS011;35493;50.276;9.372;2022-12-31T13:15:32;2.17;;;0.82;;
49412;SDS011;35493;50.276;9.372;2022-12-31T13:18:08;3.60;;;0.90;;
49412;SDS011;35493;50.276;9.372;2022-12-31T13:20:56;2.00;;;0.90;;
49412;SDS011;35493;50.276;9.372;2022-12-31T13:23:30;4.18;;;1.20;;
49412;SDS011;35493;50.276;9.372;2022-12-31T13:26:04;3.97;;;0.98;;
49412;SDS011;35493;50.276;9.372;2022-12-31T13:28:37;4.07;;;1.20;;
49412;SDS011;35493;50.276;9.372;2022-12-31T13:31:08;4.40;;;1.10;;
49412;SDS011;35493;50.276;9.372;2022-12-31T13:33:40;1.98;;;1.10;;
49412;SDS011;35493;50.276;9.372;2022-12-31T13:36:12;3.67;;;1.17;;
49412;SDS011;35493;50.276;9.372;2022-12-31T13:38:43;2.00;;;0.80;;
49412;SDS011;35493;50.276;9.372;2022-12-31T13:41:13;2.70;;;1.02;;
49412;SDS011;35493;50.276;9.372;2022-12-31T13:43:45;3.28;;;1.20;;
49412;SDS011;35493;50.276;9.372;2022-12-31T13:46:21;2.30;;;0.98;;
49412;SDS011;35493;50.276;9.372;2022-12-31T13:48:51;3.45;;;1.10;;
49412;SDS011;35493;50.276;9.372;2022-12-31T13:51:23;3.83;;;1.23;;
49412;SDS011;35493;50.276;9.372;2022-12-31T13:53:58;2.78;;;0.90;;
49412;SDS011;35493;50.276;9.372;2022-12-31T13:56:33;2.75;;;0.88;;
49412;SDS011;35493;50.276;9.372;2022-12-31T13:59:04;4.50;;;0.93;;
49412;SDS011;35493;50.276;9.372;2022-12-31T14:01:39;3.78;;;1.20;;
49412;SDS011;35493;50.276;9.372;2022-12-31T14:04:11;3.90;;;0.80;;
49412;SDS011;35493;50.276;9.372;2022-12-31T14:06:43;3.72;;;1.40;;
49412;SDS011;35493;50.276;9.372;2022-12-31T14:09:17;3.08;;;1.50;;
49412;SDS011;35493;50.276;9.372;2022-12-31T14:11:52;4.03;;;1.83;;
49412;SDS011;35493;50.276;9.372;2022-12-31T14:14:32;5.18;;;1.85;;
49412;SDS011;35493;50.276;9.372;2022-12-31T14:17:11;5.13;;;1.67;;
49412;SDS011;35493;50.276;9.372;2022-12-31T14:19:51;3.85;;;1.65;;
49412;SDS011;35493;50.276;9.372;2022-12-31T14:22:29;3.30;;;1.23;;
49412;SDS011;35493;50.276;9.372;2022-12-31T14:25:01;3.33;;;1.00;;
49412;SDS011;35493;50.276;9.372;2022-12-31T14:27:37;2.85;;;1.10;;
49412;SDS011;35493;50.276;9.372;2022-12-31T14:30:12;1.52;;;0.80;;
49412;SDS011;35493;50.276;9.372;2022-12-31T14:32:51;2.35;;;1.00;;
49412;SDS011;35493;50.276;9.372;2022-12-31T14:38:16;3.15;;;1.15;;
49412;SDS011;35493;50.276;9.372;2022-12-31T14:40:52;2.90;;;1.20;;
49412;SDS011;35493;50.276;9.372;2022-12-31T14:43:33;4.68;;;1.50;;
49412;SDS011;35493;50.276;9.372;2022-12-31T14:46:09;2.50;;;1.20;;
49412;SDS011;35493;50.276;9.372;2022-12-31T14:48:44;6.57;;;2.00;;
49412;SDS011;35493;50.276;9.372;2022-12-31T14:51:19;4.05;;;1.45;;
49412;SDS011;35493;50.276;9.372;2022-12-31T14:53:50;2.90;;;1.30;;
49412;SDS011;35493;50.276;9.372;2022-12-31T14:56:26;2.78;;;1.30;;
49412;SDS011;35493;50.276;9.372;2022-12-31T14:58:57;4.28;;;1.70;;
49412;SDS011;35493;50.276;9.372;2022-12-31T15:01:25;16.48;;;7.97;;
49412;SDS011;35493;50.276;9.372;2022-12-31T15:03:52;49.42;;;26.83;;
49412;SDS011;35493;50.276;9.372;2022-12-31T15:06:37;102.85;;;51.28;;
49412;SDS011;35493;50.276;9.372;2022-12-31T15:09:18;150.63;;;76.95;;
49412;SDS011;35493;50.276;9.372;2022-12-31T15:12:00;168.73;;;89.35;;
49412;SDS011;35493;50.276;9.372;2022-12-31T15:14:55;154.10;;;79.13;;
49412;SDS011;35493;50.276;9.372;2022-12-31T15:17:36;145.13;;;71.50;;
49412;SDS011;35493;50.276;9.372;2022-12-31T15:20:16;123.80;;;61.92;;
49412;SDS011;35493;50.276;9.372;2022-12-31T15:22:52;97.68;;;49.85;;
49412;SDS011;35493;50.276;9.372;2022-12-31T15:25:22;76.57;;;40.60;;
49412;SDS011;35493;50.276;9.372;2022-12-31T15:27:52;63.55;;;33.67;;
49412;SDS011;35493;50.276;9.372;2022-12-31T15:30:32;47.25;;;25.13;;
49412;SDS011;35493;50.276;9.372;2022-12-31T15:33:04;28.90;;;15.63;;
49412;SDS011;35493;50.276;9.372;2022-12-31T15:35:43;22.63;;;12.15;;
49412;SDS011;35493;50.276;9.372;2022-12-31T15:38:28;22.17;;;10.93;;
49412;SDS011;35493;50.276;9.372;2022-12-31T15:41:00;16.95;;;8.40;;
49412;SDS011;35493;50.276;9.372;2022-12-31T15:43:38;12.88;;;6.65;;
49412;SDS011;35493;50.276;9.372;2022-12-31T15:46:15;8.88;;;3.65;;
49412;SDS011;35493;50.276;9.372;2022-12-31T15:48:44;7.13;;;3.08;;
49412;SDS011;35493;50.276;9.372;2022-12-31T15:51:16;4.63;;;2.40;;
49412;SDS011;35493;50.276;9.372;2022-12-31T15:53:47;5.03;;;2.40;;
49412;SDS011;35493;50.276;9.372;2022-12-31T15:56:18;4.07;;;2.03;;
49412;SDS011;35493;50.276;9.372;2022-12-31T15:58:52;3.38;;;1.55;;
49412;SDS011;35493;50.276;9.372;2022-12-31T16:01:24;3.78;;;1.70;;
49412;SDS011;35493;50.276;9.372;2022-12-31T16:03:55;4.43;;;1.67;;